Time;durP1;ratioP1;P1;durP2;ratioP2;P2;SDS_P1;SDS_P2;PMS_P1;PMS_P2;Temp;Humidity;BMP_temperature;BMP_pressure;BME280_temperature;BME280_humidity;BME280_pressure;Samples;Min_cycle;Max_cycle;Signal;HPM_P1;HPM_P2
2022/04/06 00:01:16;;;;;;;27.27;15.45;;;;;;;8.27;93.07;100342.31;4997663;28;20463;-61
2022/04/06 00:03:43;;;;;;;26.40;15.95;;;;;;;8.30;92.60;100356.75;4988444;28;20154;-61
2022/04/06 00:06:09;;;;;;;27.50;16.10;;;;;;;8.25;92.46;100345.00;4988824;28;20053;-61
2022/04/06 00:08:34;;;;;;;27.83;16.27;;;;;;;8.28;92.77;100346.53;5001345;28;20038;-61
2022/04/06 00:10:59;;;;;;;27.23;15.73;;;;;;;8.28;92.64;100354.28;5007111;28;20026;-62
2022/04/06 00:13:25;;;;;;;24.95;14.57;;;;;;;8.26;92.92;100351.00;4992780;28;20042;-62
2022/04/06 00:15:50;;;;;;;27.73;14.98;;;;;;;8.25;92.38;100345.00;4987342;28;20487;-63
2022/04/06 00:18:15;;;;;;;25.42;14.77;;;;;;;8.23;92.57;100340.91;4998085;28;20034;-61
2022/04/06 00:20:41;;;;;;;38.45;14.98;;;;;;;8.23;92.34;100346.06;4989482;28;20033;-62
2022/04/06 00:23:06;;;;;;;30.85;15.30;;;;;;;8.19;92.69;100326.59;4974247;28;20042;-61
2022/04/06 00:25:32;;;;;;;27.65;15.35;;;;;;;8.23;92.75;100338.31;4987530;28;20118;-61
2022/04/06 00:27:58;;;;;;;28.02;14.60;;;;;;;8.22;92.30;100334.09;4991801;28;20041;-62
2022/04/06 00:30:24;;;;;;;27.40;15.05;;;;;;;8.20;92.28;100341.13;4987134;28;20030;-63
2022/04/06 00:32:49;;;;;;;27.30;15.40;;;;;;;8.21;92.66;100337.63;5002920;28;20033;-62
2022/04/06 00:35:29;;;;;;;25.48;14.95;;;;;;;8.21;92.50;100338.47;4987040;28;20082;-62
2022/04/06 00:37:56;;;;;;;28.48;15.82;;;;;;;8.17;92.70;100334.47;4992652;28;20033;-60
2022/04/06 00:40:22;;;;;;;27.48;16.05;;;;;;;8.20;93.09;100328.22;4994442;28;20479;-61
2022/04/06 00:42:48;;;;;;;30.08;16.52;;;;;;;8.16;92.74;100329.44;4970331;28;20057;-61
2022/04/06 00:45:15;;;;;;;27.98;15.48;;;;;;;8.16;92.89;100329.44;5002600;28;20065;-61
2022/04/06 00:47:40;;;;;;;25.67;15.13;;;;;;;8.14;92.94;100331.28;5000433;28;20025;-62
2022/04/06 00:50:06;;;;;;;27.17;15.63;;;;;;;8.11;92.30;100316.06;5006896;28;20030;-61
2022/04/06 00:52:32;;;;;;;28.27;14.77;;;;;;;8.16;92.58;100319.09;5006390;28;20018;-64
2022/04/06 00:54:57;;;;;;;26.05;14.68;;;;;;;8.15;92.12;100322.63;5006572;28;20069;-61
2022/04/06 00:57:23;;;;;;;25.88;15.02;;;;;;;8.11;92.55;100316.06;5001309;28;20026;-62
2022/04/06 00:59:49;;;;;;;25.85;14.52;;;;;;;8.14;92.59;100320.97;4989942;28;20070;-61
2022/04/06 01:02:14;;;;;;;25.77;14.10;;;;;;;8.14;92.82;100311.47;5006125;28;20030;-62
2022/04/06 01:04:40;;;;;;;26.60;14.63;;;;;;;8.13;92.45;100314.97;5005959;28;20112;-62
2022/04/06 01:07:05;;;;;;;24.95;13.13;;;;;;;8.14;92.50;100310.63;5005126;28;20111;-61
2022/04/06 01:09:31;;;;;;;25.67;13.15;;;;;;;8.14;91.88;100305.47;4994192;28;20041;-61
2022/04/06 01:11:57;;;;;;;21.75;12.77;;;;;;;8.14;92.53;100305.47;5006055;28;20025;-62
2022/04/06 01:14:23;;;;;;;29.30;13.82;;;;;;;8.10;92.50;100304.09;5004036;28;20117;-61
2022/04/06 01:16:59;;;;;;;22.05;12.50;;;;;;;8.11;91.99;100305.72;4992665;28;20176;-61
2022/04/06 01:19:33;;;;;;;24.35;13.88;;;;;;;8.11;92.57;100300.56;4986682;28;20038;-61
2022/04/06 01:21:58;;;;;;;24.08;12.63;;;;;;;8.06;91.85;100298.34;4992604;28;20481;-61
2022/04/06 01:24:24;;;;;;;27.13;12.15;;;;;;;8.10;92.21;100293.75;4995909;28;20463;-61
2022/04/06 01:26:49;;;;;;;23.88;12.40;;;;;;;8.09;92.00;100297.28;4991869;28;20036;-61
2022/04/06 01:29:14;;;;;;;24.75;12.07;;;;;;;8.09;91.95;100297.28;5006415;28;20476;-62
2022/04/06 01:31:39;;;;;;;23.98;11.88;;;;;;;8.10;92.05;100293.75;5004467;28;20553;-63
2022/04/06 01:34:05;;;;;;;24.45;12.18;;;;;;;8.08;91.46;100285.28;4999177;28;20056;-62
2022/04/06 01:36:30;;;;;;;23.27;11.65;;;;;;;8.07;91.88;100288.81;4986841;28;20026;-62
2022/04/06 01:38:55;;;;;;;22.38;11.63;;;;;;;8.06;91.79;100282.84;5002022;28;20041;-61
2022/04/06 01:41:21;;;;;;;25.10;11.82;;;;;;;8.07;91.51;100289.63;4999020;28;20029;-61
2022/04/06 01:43:46;;;;;;;20.33;11.07;;;;;;;8.01;91.68;100278.97;5001675;28;20382;-63
2022/04/06 01:46:11;;;;;;;22.05;11.32;;;;;;;8.03;91.74;100290.00;4986410;28;20117;-64
2022/04/06 01:52:11;;;;;;;20.92;10.43;;;;;;;8.05;91.83;100285.56;4990216;28;20026;-61
2022/04/06 01:54:06;;;;;;;21.38;11.05;;;;;;;8.00;91.32;100293.66;5002558;28;20053;-63
2022/04/06 01:56:31;;;;;;;21.60;10.65;;;;;;;8.01;91.17;100282.38;4990204;28;20026;-61
2022/04/06 01:58:57;;;;;;;21.00;10.65;;;;;;;7.99;91.27;100276.53;4990522;28;20479;-61
2022/04/06 02:01:22;;;;;;;21.75;10.50;;;;;;;7.96;91.05;100282.75;4996452;28;20069;-61
2022/04/06 02:03:48;;;;;;;21.08;10.27;;;;;;;7.90;91.00;100282.41;5005550;28;20490;-62
2022/04/06 02:06:13;;;;;;;18.80;9.52;;;;;;;7.95;91.34;100281.09;5003446;28;20033;-62
2022/04/06 02:08:38;;;;;;;20.58;9.80;;;;;;;7.95;90.92;100280.28;5008716;28;20133;-63
2022/04/06 02:11:04;;;;;;;24.42;10.00;;;;;;;7.90;91.16;100270.31;5005246;28;20545;-61
2022/04/06 02:13:29;;;;;;;19.90;10.20;;;;;;;7.92;90.91;100271.03;4991134;28;20105;-61
2022/04/06 02:15:54;;;;;;;20.58;9.43;;;;;;;7.92;90.97;100286.53;5009194;28;20537;-62
2022/04/06 02:18:20;;;;;;;19.48;9.35;;;;;;;7.91;90.96;100271.97;5009273;28;20470;-62
2022/04/06 02:20:45;;;;;;;21.67;9.65;;;;;;;7.91;91.10;100279.72;5009474;28;20036;-62
2022/04/06 02:23:10;;;;;;;19.95;9.10;;;;;;;7.92;90.71;100276.19;4993200;28;20068;-61
2022/04/06 02:25:36;;;;;;;18.83;8.95;;;;;;;7.91;90.49;100281.47;5007680;28;20507;-61
2022/04/06 02:28:01;;;;;;;20.95;9.10;;;;;;;7.88;90.09;100274.78;4994591;28;20030;-61
2022/04/06 02:30:27;;;;;;;22.63;9.15;;;;;;;7.88;90.14;100269.63;4989931;28;20022;-62
2022/04/06 02:32:52;;;;;;;16.42;8.50;;;;;;;7.86;90.04;100268.94;4989774;28;20037;-61
2022/04/06 02:35:17;;;;;;;21.85;8.90;;;;;;;7.83;90.64;100261.44;5004999;28;20034;-62
2022/04/06 02:37:44;;;;;;;22.15;9.27;;;;;;;7.84;90.68;100263.06;4996613;28;20030;-63
2022/04/06 02:40:11;;;;;;;18.10;8.48;;;;;;;7.86;90.00;100266.34;4998929;28;20112;-64
2022/04/06 02:42:36;;;;;;;20.38;8.27;;;;;;;7.82;89.83;100254.63;4995946;28;20030;-61
2022/04/06 02:45:01;;;;;;;21.00;8.45;;;;;;;7.86;89.90;100263.78;5002506;28;20424;-62
2022/04/06 02:47:27;;;;;;;17.30;7.70;;;;;;;7.83;89.12;100256.25;5008197;28;20474;-62
2022/04/06 02:49:52;;;;;;;20.42;8.15;;;;;;;7.85;88.99;100259.53;5009419;28;20116;-61
2022/04/06 02:52:18;;;;;;;14.75;7.55;;;;;;;7.83;88.06;100256.25;5008302;28;20018;-61
2022/04/06 02:54:43;;;;;;;16.92;7.00;;;;;;;7.83;88.13;100256.25;4997968;28;20034;-62
2022/04/06 02:57:08;;;;;;;16.33;6.75;;;;;;;7.82;88.48;100251.22;4997016;28;20386;-62
2022/04/06 02:59:34;;;;;;;17.83;7.20;;;;;;;7.81;88.09;100252.16;5006215;28;20125;-64
2022/04/06 03:01:59;;;;;;;18.13;7.53;;;;;;;7.81;87.66;100247.00;4991380;28;20338;-61
2022/04/06 03:04:24;;;;;;;16.00;6.28;;;;;;;7.78;87.78;100244.66;4989055;28;20034;-61
2022/04/06 03:06:50;;;;;;;17.88;6.38;;;;;;;7.77;87.13;100245.59;5001694;28;20515;-61
2022/04/06 03:09:15;;;;;;;15.15;6.47;;;;;;;7.76;87.50;100233.66;4988989;28;20026;-64
2022/04/06 03:11:40;;;;;;;14.07;6.10;;;;;;;7.76;86.63;100239.63;4989247;28;20022;-62
2022/04/06 03:14:05;;;;;;;16.13;6.13;;;;;;;7.73;86.69;100234.69;4997059;28;20501;-61
2022/04/06 03:16:31;;;;;;;13.27;5.80;;;;;;;7.70;86.86;100225.44;4991554;28;20054;-61
2022/04/06 03:18:57;;;;;;;14.32;5.22;;;;;;;7.70;86.17;100232.38;5008532;28;20473;-61
2022/04/06 03:21:22;;;;;;;14.30;5.10;;;;;;;7.68;86.45;100226.50;5001326;28;20073;-60
2022/04/06 03:23:47;;;;;;;11.77;4.97;;;;;;;7.65;86.51;100219.00;4988761;28;20034;-61
2022/04/06 03:26:13;;;;;;;14.50;5.22;;;;;;;7.64;86.03;100222.53;4989116;28;20459;-61
2022/04/06 03:28:38;;;;;;;16.15;5.22;;;;;;;7.65;86.28;100213.84;5008867;28;20040;-65
2022/04/06 03:31:05;;;;;;;14.48;5.68;;;;;;;7.62;85.29;100216.66;5008528;28;20351;-61
2022/04/06 03:33:31;;;;;;;11.68;4.88;;;;;;;7.60;85.83;100208.22;5007169;28;20037;-62
2022/04/06 03:35:56;;;;;;;14.25;4.97;;;;;;;7.58;84.73;100204.94;5007911;28;20086;-61
2022/04/06 03:38:22;;;;;;;13.63;5.05;;;;;;;7.55;85.17;100205.19;4989565;28;20034;-61
2022/04/06 03:40:47;;;;;;;13.32;4.82;;;;;;;7.53;84.87;100212.22;4988428;28;20068;-65
2022/04/06 03:43:13;;;;;;;13.98;4.70;;;;;;;7.50;85.52;100196.97;5004163;28;20484;-62
2022/04/06 03:45:39;;;;;;;11.35;5.00;;;;;;;7.50;85.10;100200.38;4989510;28;20494;-62
2022/04/06 03:48:04;;;;;;;11.73;4.55;;;;;;;7.49;85.13;100201.31;4999633;28;20041;-63
2022/04/06 03:50:30;;;;;;;12.00;4.65;;;;;;;7.50;84.66;100200.38;4986946;28;20879;-60
2022/04/06 03:52:55;;;;;;;11.88;4.15;;;;;;;7.47;84.50;100202.38;4968100;28;20049;-61
2022/04/06 03:55:22;;;;;;;13.65;4.50;;;;;;;7.49;85.37;100205.66;4986918;28;20409;-62
2022/04/06 03:57:47;;;;;;;13.13;4.68;;;;;;;7.39;84.50;100190.88;4982784;28;20026;-63
2022/04/06 04:00:14;;;;;;;13.32;4.60;;;;;;;7.44;85.27;100193.13;4993828;28;20057;-61
2022/04/06 04:02:40;;;;;;;13.98;4.40;;;;;;;7.43;85.30;100200.03;4989688;28;20037;-61
2022/04/06 04:05:05;;;;;;;11.77;4.15;;;;;;;7.45;85.36;100193.03;4985436;28;20034;-62
2022/04/06 04:07:37;;;;;;;12.00;5.07;;;;;;;7.41;85.64;100189.03;4977808;28;20676;-61
2022/04/06 04:10:07;;;;;;;12.82;4.65;;;;;;;7.43;85.45;100196.63;4993849;28;20632;-61
2022/04/06 04:12:34;;;;;;;13.00;4.10;;;;;;;7.40;84.73;100195.13;4986103;28;20462;-61
2022/04/06 04:14:59;;;;;;;11.85;4.65;;;;;;;7.40;85.13;100195.13;4964822;28;20134;-60
2022/04/06 04:17:24;;;;;;;10.13;4.45;;;;;;;7.39;84.89;100206.38;4995235;28;20113;-62
2022/04/06 04:19:49;;;;;;;13.15;4.40;;;;;;;7.33;85.36;100196.53;4978539;28;20418;-62
2022/04/06 04:22:15;;;;;;;11.43;4.28;;;;;;;7.30;85.10;100186.47;4993413;28;20030;-61
2022/04/06 04:24:40;;;;;;;11.55;4.47;;;;;;;7.37;84.88;100187.63;4987426;28;20411;-61
2022/04/06 04:27:06;;;;;;;10.68;4.35;;;;;;;7.40;83.91;100192.56;4990004;28;20038;-61
2022/04/06 04:29:31;;;;;;;11.77;4.68;;;;;;;7.34;85.10;100187.03;4987126;28;20061;-61
2022/04/06 04:31:56;;;;;;;10.82;4.32;;;;;;;7.32;84.79;100174.25;5003303;28;20076;-60
2022/04/06 04:34:22;;;;;;;10.98;4.35;;;;;;;7.31;84.63;100179.53;4975901;28;20027;-61
2022/04/06 04:36:47;;;;;;;12.82;4.70;;;;;;;7.32;84.65;100169.09;4986878;28;20050;-62
2022/04/06 04:39:12;;;;;;;11.80;4.57;;;;;;;7.34;84.81;100193.03;4986081;28;20022;-62
2022/04/06 04:41:38;;;;;;;11.70;4.72;;;;;;;7.34;84.31;100182.72;4976365;28;20061;-62
2022/04/06 04:44:04;;;;;;;13.38;5.28;;;;;;;7.33;84.71;100177.66;4976208;28;20022;-61
2022/04/06 04:46:29;;;;;;;12.75;4.95;;;;;;;7.30;84.42;100175.34;4976671;28;20074;-63
2022/04/06 04:48:54;;;;;;;13.40;4.90;;;;;;;7.34;84.31;100182.72;4969434;28;20061;-62
2022/04/06 04:51:20;;;;;;;14.32;5.10;;;;;;;7.32;84.62;100179.41;4986322;28;20096;-62
2022/04/06 04:53:45;;;;;;;13.25;5.28;;;;;;;7.35;84.72;100181.78;5000296;28;20040;-61
2022/04/06 04:56:10;;;;;;;11.38;4.93;;;;;;;7.34;84.83;100172.41;4989109;28;20025;-62
2022/04/06 04:58:36;;;;;;;11.27;5.15;;;;;;;7.34;84.74;100171.56;4988964;28;20032;-62
2022/04/06 05:01:02;;;;;;;14.30;5.30;;;;;;;7.33;84.98;100169.91;4989193;28;20041;-63
2022/04/06 05:03:27;;;;;;;11.52;4.78;;;;;;;7.33;84.78;100175.06;4991492;28;20026;-61
2022/04/06 05:05:54;;;;;;;15.15;5.10;;;;;;;7.32;84.19;100153.63;4986822;28;20022;-61
2022/04/06 05:08:20;;;;;;;10.07;4.10;;;;;;;7.34;84.58;100156.91;5002114;28;20105;-61
2022/04/06 05:10:46;;;;;;;10.73;4.93;;;;;;;7.33;84.46;100157.84;4992728;28;20469;-64
2022/04/06 05:13:13;;;;;;;12.48;4.80;;;;;;;7.34;84.56;100151.75;4998648;28;20112;-65
2022/04/06 05:15:38;;;;;;;13.32;5.00;;;;;;;7.32;83.76;100145.88;5005667;28;20057;-62
2022/04/06 05:18:04;;;;;;;10.75;4.75;;;;;;;7.34;84.03;100138.00;4987185;28;20393;-61
2022/04/06 05:20:29;;;;;;;11.80;4.78;;;;;;;7.33;84.06;100149.28;4969403;28;20401;-65
2022/04/06 05:22:54;;;;;;;14.30;4.85;;;;;;;7.35;83.90;100139.69;5004942;28;20077;-61
2022/04/06 05:25:20;;;;;;;14.07;5.03;;;;;;;7.33;84.85;100142.34;4990626;28;20030;-62
2022/04/06 05:27:53;;;;;;;13.77;5.35;;;;;;;7.35;84.98;100148.25;4996253;28;20406;-61
2022/04/06 05:30:21;;;;;;;16.05;5.63;;;;;;;7.35;84.80;100143.06;5009895;28;20048;-62
2022/04/06 05:32:48;;;;;;;13.60;5.60;;;;;;;7.36;84.06;100144.72;5005701;28;20018;-64
2022/04/06 05:35:14;;;;;;;15.73;5.70;;;;;;;7.38;85.12;100140.25;4989329;28;20041;-62
2022/04/06 05:37:41;;;;;;;12.85;5.35;;;;;;;7.40;84.44;100146.13;4980415;28;20034;-61
2022/04/06 05:40:08;;;;;;;13.20;5.57;;;;;;;7.38;85.12;100137.66;5008035;28;20033;-62
2022/04/06 05:42:33;;;;;;;12.23;5.75;;;;;;;7.41;84.71;100145.16;4999756;28;20030;-65
2022/04/06 05:44:59;;;;;;;15.98;5.97;;;;;;;7.42;84.36;100144.22;4978768;28;20041;-61
2022/04/06 05:47:25;;;;;;;15.48;6.90;;;;;;;7.43;85.10;100145.03;5007303;28;20022;-61
2022/04/06 05:49:50;;;;;;;18.50;6.97;;;;;;;7.44;84.60;100141.50;5005796;28;20105;-61
2022/04/06 05:52:16;;;;;;;17.40;7.25;;;;;;;7.43;85.32;100139.88;4996290;28;20026;-62
2022/04/06 05:54:41;;;;;;;18.13;7.50;;;;;;;7.44;85.36;100144.09;4990224;28;20526;-63
2022/04/06 05:57:07;;;;;;;17.33;7.43;;;;;;;7.45;86.05;100144.00;5004954;28;20034;-62
2022/04/06 05:59:32;;;;;;;16.40;7.32;;;;;;;7.44;85.73;100136.34;5009392;28;20034;-62
2022/04/06 06:01:57;;;;;;;19.58;7.90;;;;;;;7.49;86.03;100138.56;5008423;28;20366;-62
2022/04/06 06:04:23;;;;;;;15.63;7.30;;;;;;;7.50;86.17;100145.38;5007140;28;20552;-61
2022/04/06 06:06:48;;;;;;;19.40;7.72;;;;;;;7.51;85.88;100137.50;4988508;28;20039;-62
2022/04/06 06:09:14;;;;;;;17.65;8.13;;;;;;;7.53;86.33;100145.97;4989547;28;20022;-62
2022/04/06 06:11:40;;;;;;;19.40;7.78;;;;;;;7.54;86.12;100141.63;4990142;28;20030;-61
2022/04/06 06:14:06;;;;;;;20.95;8.07;;;;;;;7.54;86.36;100141.63;4989614;28;20033;-64
2022/04/06 06:16:31;;;;;;;18.15;7.28;;;;;;;7.57;85.89;100136.19;4989638;28;20054;-62
2022/04/06 06:18:57;;;;;;;18.52;7.13;;;;;;;7.60;85.69;100125.63;4990070;28;20034;-64
2022/04/06 06:21:22;;;;;;;16.08;6.90;;;;;;;7.60;86.12;100141.13;4989077;28;20038;-63
2022/04/06 06:23:48;;;;;;;17.63;6.63;;;;;;;7.62;86.40;100123.75;4989905;28;20088;-62
2022/04/06 06:26:13;;;;;;;18.35;6.93;;;;;;;7.63;85.72;100130.56;4996552;28;20033;-64
2022/04/06 06:28:40;;;;;;;16.35;5.68;;;;;;;7.65;85.02;100128.66;5009284;28;20037;-62
2022/04/06 06:31:05;;;;;;;14.45;6.38;;;;;;;7.61;85.22;100119.53;5009374;28;20022;-63
2022/04/06 06:33:30;;;;;;;17.38;6.10;;;;;;;7.68;85.27;100133.56;4991515;28;20037;-64
2022/04/06 06:35:56;;;;;;;14.43;5.45;;;;;;;7.65;84.50;100124.31;4988375;28;20077;-62
2022/04/06 06:38:21;;;;;;;13.02;4.90;;;;;;;7.67;84.45;100121.59;4988022;28;20463;-61
2022/04/06 06:40:48;;;;;;;11.43;4.47;;;;;;;7.71;84.91;100123.00;4989545;28;20493;-61
2022/04/06 06:43:14;;;;;;;12.82;4.53;;;;;;;7.72;83.71;100128.03;4988777;28;20081;-62
2022/04/06 06:45:39;;;;;;;14.13;4.47;;;;;;;7.74;83.62;100120.16;4989462;28;20034;-61
2022/04/06 06:48:05;;;;;;;15.88;4.55;;;;;;;7.75;84.35;100114.09;4989236;28;20045;-65
2022/04/06 06:50:30;;;;;;;11.73;4.22;;;;;;;7.77;82.77;100114.78;4980579;28;20703;-61
2022/04/06 06:52:56;;;;;;;10.15;4.07;;;;;;;7.76;83.45;100112.31;5009130;28;20026;-62
2022/04/06 06:55:22;;;;;;;10.52;3.80;;;;;;;7.75;83.21;100108.94;5006183;28;20441;-63
2022/04/06 06:57:48;;;;;;;11.15;3.70;;;;;;;7.71;82.70;100107.53;4989643;28;20423;-65
2022/04/06 07:00:15;;;;;;;10.75;3.25;;;;;;;7.77;81.85;100119.94;5008728;28;20390;-63
2022/04/06 07:02:41;;;;;;;9.35;3.47;;;;;;;7.79;81.68;100122.38;5008379;28;20375;-64
2022/04/06 07:05:07;;;;;;;8.02;3.10;;;;;;;7.79;81.37;100110.28;5008775;28;20030;-62
2022/04/06 07:07:32;;;;;;;6.28;2.58;;;;;;;7.80;81.16;100109.38;4989030;28;20088;-63
2022/04/06 07:10:00;;;;;;;8.95;3.13;;;;;;;7.81;80.59;100116.16;4990806;28;20026;-63
2022/04/06 07:12:25;;;;;;;8.73;3.00;;;;;;;7.82;80.26;100104.88;5007617;28;20033;-62
2022/04/06 07:14:50;;;;;;;10.13;2.95;;;;;;;7.82;80.08;100102.31;5008119;28;20033;-67
2022/04/06 07:17:17;;;;;;;8.30;2.83;;;;;;;7.83;80.40;100113.44;4998206;28;20469;-61
2022/04/06 07:19:42;;;;;;;13.65;3.58;;;;;;;7.80;80.03;100096.47;4988978;28;20030;-61
2022/04/06 07:22:08;;;;;;;9.35;2.78;;;;;;;7.85;79.17;100099.47;4988814;28;20030;-61
2022/04/06 07:24:33;;;;;;;8.50;2.60;;;;;;;7.87;79.28;100097.59;4988812;28;20065;-61
2022/04/06 07:26:58;;;;;;;8.23;2.78;;;;;;;7.89;78.23;100100.03;4988305;28;20105;-66
2022/04/06 07:29:24;;;;;;;8.18;2.47;;;;;;;7.90;78.77;100094.75;4988507;28;20034;-61
2022/04/06 07:31:49;;;;;;;9.40;2.60;;;;;;;7.91;79.26;100093.81;4988956;28;20371;-61
2022/04/06 07:34:15;;;;;;;6.80;2.55;;;;;;;7.93;78.40;100091.94;4991122;28;20086;-63
2022/04/06 07:36:40;;;;;;;11.18;2.70;;;;;;;7.91;78.39;100078.34;4989823;28;20034;-62
2022/04/06 07:39:06;;;;;;;8.00;2.50;;;;;;;7.97;78.17;100077.81;4994665;28;20021;-62
2022/04/06 07:41:32;;;;;;;11.20;2.90;;;;;;;7.99;78.51;100075.94;4997475;28;20533;-65
2022/04/06 07:43:58;;;;;;;9.13;2.60;;;;;;;8.03;78.22;100073.06;4985046;28;20363;-64
2022/04/06 07:46:24;;;;;;;10.85;3.03;;;;;;;8.07;78.69;100079.63;5005690;28;20036;-63
2022/04/06 07:48:49;;;;;;;7.80;2.60;;;;;;;8.06;78.28;100070.25;5007521;28;20045;-62
2022/04/06 07:51:15;;;;;;;10.13;3.05;;;;;;;8.12;78.30;100069.75;4983669;28;20034;-65
2022/04/06 07:53:41;;;;;;;10.13;2.58;;;;;;;8.09;77.54;100064.84;4987858;28;20043;-63
2022/04/06 07:56:06;;;;;;;8.25;2.85;;;;;;;8.12;77.07;100069.75;4986313;28;20018;-68
2022/04/06 07:58:32;;;;;;;9.90;2.72;;;;;;;8.13;77.61;100066.19;4986524;28;20041;-62
2022/04/06 08:00:58;;;;;;;10.90;3.00;;;;;;;8.11;78.01;100052.59;4988764;28;20467;-60
2022/04/06 08:03:23;;;;;;;8.15;2.85;;;;;;;8.16;78.07;100063.38;5000419;28;20116;-64
2022/04/06 08:05:50;;;;;;;8.80;2.72;;;;;;;8.19;77.71;100066.50;4987381;28;20141;-63
2022/04/06 08:08:15;;;;;;;9.25;2.83;;;;;;;8.25;78.67;100065.16;4986592;28;20025;-62
2022/04/06 08:10:41;;;;;;;9.38;3.20;;;;;;;8.23;78.54;100049.00;4987084;28;20030;-63
2022/04/06 08:13:06;;;;;;;10.15;3.00;;;;;;;8.30;77.64;100057.84;4987355;28;20113;-66
2022/04/06 08:15:31;;;;;;;10.27;3.35;;;;;;;8.35;78.85;100058.28;4987228;28;20776;-62
2022/04/06 08:17:56;;;;;;;11.60;3.20;;;;;;;8.37;78.39;100061.63;4986802;28;20101;-61
2022/04/06 08:20:22;;;;;;;11.32;3.20;;;;;;;8.39;77.88;100067.47;4986508;28;20109;-62
2022/04/06 08:22:49;;;;;;;11.10;3.50;;;;;;;8.39;78.60;100070.03;4987519;28;20471;-65
2022/04/06 08:25:15;;;;;;;9.07;3.28;;;;;;;8.37;78.37;100059.03;4987129;28;20064;-61
2022/04/06 08:27:40;;;;;;;9.68;3.50;;;;;;;8.38;77.95;100065.81;4987799;28;20030;-61
2022/04/06 08:30:08;;;;;;;7.95;3.53;;;;;;;8.35;77.74;100060.88;4987505;28;20034;-66
2022/04/06 08:32:33;;;;;;;10.30;3.60;;;;;;;8.39;78.79;100061.47;4987456;28;20105;-62
2022/04/06 08:34:59;;;;;;;9.27;3.72;;;;;;;8.39;77.74;100062.28;4987615;28;20382;-61
2022/04/06 08:37:29;;;;;;;11.25;3.85;;;;;;;8.38;78.44;100055.50;4988168;28;20061;-65
2022/04/06 08:39:54;;;;;;;9.60;3.88;;;;;;;8.38;78.87;100054.69;5006290;28;20037;-62
2022/04/06 08:42:19;;;;;;;12.10;4.60;;;;;;;8.42;78.78;100066.38;5007085;28;20044;-66
2022/04/06 08:44:45;;;;;;;10.82;4.15;;;;;;;8.40;79.06;100063.91;5003203;28;20030;-61
2022/04/06 08:47:10;;;;;;;10.68;4.70;;;;;;;8.41;79.52;100070.72;4987742;28;20375;-61
2022/04/06 08:49:36;;;;;;;9.07;4.18;;;;;;;8.42;80.80;100062.00;4987558;28;20379;-64
2022/04/06 08:52:03;;;;;;;9.75;4.45;;;;;;;8.43;80.43;100068.84;5007017;28;20076;-63
2022/04/06 08:54:29;;;;;;;12.40;4.72;;;;;;;8.40;81.53;100063.91;5006058;28;20420;-64
2022/04/06 08:56:55;;;;;;;12.05;4.95;;;;;;;8.38;81.26;100054.69;5007474;28;20467;-62
2022/04/06 08:59:20;;;;;;;10.55;4.70;;;;;;;8.42;80.57;100066.38;4993136;28;20410;-61
2022/04/06 09:01:46;;;;;;;11.25;5.13;;;;;;;8.35;81.16;100062.63;5009457;28;20545;-64
2022/04/06 09:04:12;;;;;;;11.65;4.90;;;;;;;8.37;81.36;100056.44;5005414;28;20117;-67
2022/04/06 09:06:42;;;;;;;11.50;4.88;;;;;;;8.34;81.47;100059.25;4991313;28;20034;-62
2022/04/06 09:09:08;;;;;;;11.32;4.70;;;;;;;8.34;81.97;100059.25;4991148;28;20034;-62
2022/04/06 09:11:44;;;;;;;9.70;4.82;;;;;;;8.32;82.33;100061.16;4990991;28;20029;-64
2022/04/06 09:14:10;;;;;;;10.27;4.93;;;;;;;8.32;82.69;100052.59;4976281;28;20082;-64
2022/04/06 09:16:36;;;;;;;12.50;4.90;;;;;;;8.33;82.52;100062.78;4998215;28;20054;-62
2022/04/06 09:19:10;;;;;;;12.25;5.28;;;;;;;8.33;83.40;100065.38;4997450;28;20042;-65
2022/04/06 09:21:44;;;;;;;10.07;5.40;;;;;;;8.30;83.61;100057.84;4996552;28;20113;-62
2022/04/06 09:24:14;;;;;;;11.68;5.25;;;;;;;8.31;83.91;100063.84;4976054;28;20508;-63
2022/04/06 09:26:39;;;;;;;11.13;5.40;;;;;;;8.25;83.99;100060.00;4996504;28;20038;-63
2022/04/06 09:29:04;;;;;;;12.60;5.38;;;;;;;8.22;84.37;100055.13;4998092;28;20097;-62
2022/04/06 09:31:37;;;;;;;10.25;5.60;;;;;;;8.23;84.57;100061.91;4978129;28;20056;-62
2022/04/06 09:34:04;;;;;;;14.68;5.63;;;;;;;8.20;84.22;100056.97;4997078;28;20026;-62
2022/04/06 09:36:31;;;;;;;11.10;5.40;;;;;;;8.20;85.25;100063.00;4998752;28;20029;-65
2022/04/06 09:38:57;;;;;;;11.43;5.10;;;;;;;8.21;84.77;100063.81;4996048;28;20156;-62
2022/04/06 09:41:24;;;;;;;13.80;6.15;;;;;;;8.23;85.78;100056.75;5006376;28;20406;-62
2022/04/06 09:50:30;;;;;;;;;;;;;;;8.33;85.70;100057.63;4991426;28;20045;-79
2022/04/06 09:53:00;;;;;;;12.07;5.82;;;;;;;8.25;86.12;100054.84;4973020;28;19914;-79
2022/04/06 09:55:26;;;;;;;12.35;6.72;;;;;;;8.19;86.93;100045.03;4996797;28;20320;-79
2022/04/06 09:57:56;;;;;;;14.38;6.70;;;;;;;8.19;87.43;100055.34;4990657;28;20494;-79
2022/04/06 10:00:24;;;;;;;14.38;6.57;;;;;;;8.14;87.62;100044.59;5004559;28;20044;-82
2022/04/06 10:03:08;;;;;;;10.93;6.30;;;;;;;8.18;87.97;100048.56;5010069;28;20045;-81
2022/04/06 10:05:35;;;;;;;11.70;6.63;;;;;;;8.16;88.34;100050.47;5010570;28;20041;-80
2022/04/06 10:08:02;;;;;;;13.20;6.60;;;;;;;8.03;88.96;100021.41;4984941;28;20037;-80
2022/04/06 10:10:27;;;;;;;15.40;6.97;;;;;;;8.12;89.65;100049.06;4983029;28;20033;-81
2022/04/06 10:12:53;;;;;;;15.48;6.80;;;;;;;8.07;90.19;100033.97;4990449;28;20061;-81
2022/04/06 10:15:19;;;;;;;12.27;7.38;;;;;;;8.00;90.42;100022.50;4994920;28;20497;-80
2022/04/06 10:17:44;;;;;;;14.60;6.93;;;;;;;7.98;90.35;100019.25;5001067;28;20033;-80
2022/04/06 10:20:21;;;;;;;13.18;7.45;;;;;;;8.02;91.00;100030.94;5001544;28;20048;-80
2022/04/06 10:23:12;;;;;;;13.00;7.68;;;;;;;8.06;91.26;100029.75;4982794;28;20609;-80
2022/04/06 10:26:05;;;;;;;13.52;8.07;;;;;;;8.04;91.80;100036.81;4999687;28;20377;-81
2022/04/06 10:28:33;;;;;;;13.57;7.53;;;;;;;7.96;91.08;100024.53;4989787;28;20149;-80
2022/04/06 10:31:19;;;;;;;15.38;7.75;;;;;;;8.04;90.96;100033.41;4989143;28;20038;-80
2022/04/06 10:34:08;;;;;;;12.57;7.72;;;;;;;7.99;91.59;100029.44;4991103;28;20513;-80
2022/04/06 10:36:33;;;;;;;15.23;8.48;;;;;;;7.97;91.45;100010.69;4989243;28;20034;-80
2022/04/06 10:39:07;;;;;;;14.50;7.78;;;;;;;8.02;91.40;100032.69;4989841;28;20037;-80
2022/04/06 10:41:34;;;;;;;13.80;8.43;;;;;;;7.99;91.28;100016.53;4989180;28;20566;-80
2022/04/06 10:43:59;;;;;;;12.18;8.35;;;;;;;8.02;91.25;100020.59;5004617;28;20046;-79
2022/04/06 10:46:34;;;;;;;15.75;8.38;;;;;;;8.02;91.47;100017.22;4973063;28;20082;-79
2022/04/06 10:49:15;;;;;;;15.40;9.00;;;;;;;8.03;91.32;100009.34;4996530;28;20088;-80
2022/04/06 10:51:46;;;;;;;14.40;8.93;;;;;;;8.03;91.62;100018.84;4989013;28;20381;-80
2022/04/06 10:54:14;;;;;;;14.68;9.35;;;;;;;8.07;91.13;100015.06;4989413;28;20026;-79
2022/04/06 10:56:48;;;;;;;13.95;8.82;;;;;;;8.10;91.53;100013.06;5009538;28;20081;-79
2022/04/06 10:59:18;;;;;;;12.88;8.90;;;;;;;8.08;91.48;100014.13;5009276;28;20470;-80
2022/04/06 11:01:46;;;;;;;13.82;8.88;;;;;;;8.10;91.72;100004.50;5009499;28;20089;-81
2022/04/06 11:04:24;;;;;;;16.70;8.95;;;;;;;8.08;91.58;99990.88;5009296;28;20026;-80
2022/04/06 11:06:55;;;;;;;14.88;9.38;;;;;;;8.15;91.52;99998.00;5004730;28;20034;-80
2022/04/06 11:12:09;;;;;;;13.65;8.38;;;;;;;8.19;90.34;99989.00;4989284;28;20496;-80
2022/04/06 11:14:34;;;;;;;12.32;8.30;;;;;;;8.18;90.51;99991.72;4971570;28;20431;-80
2022/04/06 11:17:00;;;;;;;12.43;7.95;;;;;;;8.23;90.51;99994.75;4989195;28;20483;-80
2022/04/06 11:19:25;;;;;;;12.70;8.15;;;;;;;8.26;90.68;100004.84;4989074;28;20030;-79
2022/04/06 11:21:56;;;;;;;13.75;8.23;;;;;;;8.28;91.04;99987.44;5001163;28;20033;-77
2022/04/06 11:24:22;;;;;;;13.43;8.55;;;;;;;8.32;90.76;99999.16;5008220;28;20462;-80
2022/04/06 11:26:48;;;;;;;12.55;7.75;;;;;;;8.32;90.11;99986.22;5008581;28;20458;-80
2022/04/06 11:29:14;;;;;;;13.32;7.85;;;;;;;8.32;90.43;99982.81;5008382;28;20034;-79
2022/04/06 11:32:13;;;;;;;13.65;7.82;;;;;;;8.35;89.85;99985.94;4991099;28;20459;-79
2022/04/06 11:34:40;;;;;;;15.05;7.90;;;;;;;8.24;89.21;99973.13;4950411;28;20034;-79